Time;durP1;ratioP1;P1;durP2;ratioP2;P2;SDS_P1;SDS_P2;PMS_P1;PMS_P2;Temp;Humidity;BMP_temperature;BMP_pressure;BME280_temperature;BME280_humidity;BME280_pressure;Samples;Min_cycle;Max_cycle;Signal;HPM_P1;HPM_P2
2022/10/03 00:01:17;;;;;;;13.93;1.85;;;12.80;96.50;;;;;;4972394;28;20046;-78
2022/10/03 00:04:07;;;;;;;7.47;1.40;;;12.80;96.50;;;;;;4954587;28;20046;-77
2022/10/03 00:06:42;;;;;;;11.20;1.75;;;12.80;96.50;;;;;;4973547;28;20034;-78
2022/10/03 00:09:14;;;;;;;8.40;1.77;;;12.70;96.50;;;;;;4966996;28;20030;-77
2022/10/03 00:12:02;;;;;;;14.05;2.10;;;12.70;96.40;;;;;;4972896;28;20037;-78
2022/10/03 00:14:39;;;;;;;14.68;2.17;;;12.80;96.50;;;;;;4973599;28;20034;-78
2022/10/03 00:17:09;;;;;;;13.38;2.10;;;12.70;96.50;;;;;;4968624;28;20041;-76
2022/10/03 00:19:53;;;;;;;15.23;2.25;;;12.70;96.50;;;;;;4975712;28;20698;-76
2022/10/03 00:22:55;;;;;;;15.98;2.47;;;12.80;96.70;;;;;;4975026;28;20113;-76
2022/10/03 00:25:45;;;;;;;13.45;2.17;;;12.80;96.70;;;;;;4964660;28;20756;-76
2022/10/03 00:28:42;;;;;;;16.80;3.15;;;12.70;96.70;;;;;;4972431;28;20081;-76
2022/10/03 00:31:20;;;;;;;10.18;2.15;;;12.80;96.80;;;;;;4965875;28;20153;-76
2022/10/03 00:34:03;;;;;;;8.18;1.63;;;12.80;96.80;;;;;;4973637;28;20447;-76
2022/10/03 00:36:52;;;;;;;11.50;2.13;;;12.80;96.80;;;;;;4972223;28;20399;-76
2022/10/03 00:39:26;;;;;;;11.50;1.88;;;12.90;96.70;;;;;;4968898;28;20041;-74
2022/10/03 00:42:16;;;;;;;10.60;1.92;;;13.00;96.60;;;;;;4973650;28;20121;-77
2022/10/03 00:45:00;;;;;;;12.68;1.50;;;13.10;96.50;;;;;;4971266;28;20038;-77
2022/10/03 00:47:53;;;;;;;13.82;2.42;;;13.10;96.40;;;;;;4965681;28;20030;-77
2022/10/03 00:50:24;;;;;;;13.00;2.30;;;13.10;96.40;;;;;;4968195;28;20071;-77
2022/10/03 00:53:08;;;;;;;11.02;2.40;;;13.10;96.40;;;;;;4978643;28;20035;-77
2022/10/03 00:55:46;;;;;;;8.40;1.67;;;13.10;96.40;;;;;;4968653;28;20077;-77
2022/10/03 00:58:42;;;;;;;13.43;2.00;;;13.20;96.30;;;;;;4967705;28;20384;-77
2022/10/03 01:01:26;;;;;;;13.35;1.98;;;13.20;96.30;;;;;;4975455;28;20058;-77
2022/10/03 01:04:10;;;;;;;13.38;1.58;;;13.30;96.20;;;;;;4971259;28;20146;-77
2022/10/03 01:06:46;;;;;;;5.85;1.48;;;13.30;96.20;;;;;;4965769;28;20041;-77
2022/10/03 01:09:19;;;;;;;;;;;13.30;96.10;;;;;;4966948;28;20042;-77
2022/10/03 01:12:16;;;;;;;14.32;1.92;;;13.40;96.00;;;;;;4973583;28;19934;-77
2022/10/03 01:14:48;;;;;;;11.65;1.58;;;13.40;96.00;;;;;;4966464;28;20133;-77
2022/10/03 01:17:22;;;;;;;10.77;1.70;;;13.40;95.90;;;;;;4970537;28;20034;-77
2022/10/03 01:19:59;;;;;;;10.65;2.05;;;13.40;96.00;;;;;;4973921;28;20045;-77
2022/10/03 01:22:44;;;;;;;8.90;1.50;;;13.40;96.00;;;;;;4972047;28;20118;-77
2022/10/03 01:25:31;;;;;;;14.65;2.00;;;13.50;95.90;;;;;;4968153;28;20042;-77
2022/10/03 01:31:04;;;;;;;9.77;1.85;;;13.50;95.70;;;;;;4963768;28;19936;-77
2022/10/03 01:33:36;;;;;;;10.60;1.67;;;13.50;96.00;;;;;;4973228;28;20043;-77
2022/10/03 01:36:38;;;;;;;12.43;1.50;;;13.50;95.60;;;;;;4972215;28;20545;-77
2022/10/03 01:39:25;;;;;;;7.75;1.45;;;13.50;95.70;;;;;;4963187;28;20038;-77
2022/10/03 01:42:09;;;;;;;16.13;2.20;;;13.60;95.50;;;;;;4974186;28;20037;-77
2022/10/03 01:44:56;;;;;;;11.50;1.73;;;13.60;95.50;;;;;;4964724;28;20085;-77
2022/10/03 01:47:36;;;;;;;10.65;1.70;;;13.60;95.40;;;;;;4968380;28;20038;-77
2022/10/03 01:50:14;;;;;;;9.30;2.17;;;13.60;95.40;;;;;;4966158;28;20763;-77
2022/10/03 01:52:51;;;;;;;11.80;2.13;;;13.60;95.40;;;;;;4965427;28;20084;-77
2022/10/03 01:55:40;;;;;;;15.98;2.45;;;13.60;95.40;;;;;;4970666;28;20463;-77
2022/10/03 01:58:20;;;;;;;10.68;1.38;;;13.60;95.70;;;;;;4978591;28;20041;-74
2022/10/03 02:00:57;;;;;;;8.10;1.50;;;13.60;95.30;;;;;;4970475;28;20034;-76
2022/10/03 02:03:35;;;;;;;5.03;1.35;;;13.60;95.30;;;;;;4972138;28;20089;-77
2022/10/03 02:06:22;;;;;;;11.52;1.85;;;13.50;95.30;;;;;;4963623;28;20050;-77
2022/10/03 02:09:05;;;;;;;16.67;2.35;;;13.50;95.30;;;;;;4965383;28;20148;-77
2022/10/03 02:11:54;;;;;;;10.38;1.98;;;13.50;95.30;;;;;;4967697;28;20407;-77
2022/10/03 02:14:33;;;;;;;12.27;2.08;;;13.40;95.40;;;;;;4969918;28;20486;-77
2022/10/03 02:17:06;;;;;;;13.15;1.58;;;13.30;95.50;;;;;;4971991;28;20130;-77
2022/10/03 02:19:41;;;;;;;10.23;1.95;;;13.40;95.60;;;;;;4974135;28;20030;-76
2022/10/03 02:22:49;;;;;;;8.43;1.88;;;13.40;95.60;;;;;;4963198;28;20030;-77
2022/10/03 02:25:23;;;;;;;16.63;2.45;;;13.40;95.70;;;;;;4970785;28;20482;-77
2022/10/03 02:28:15;;;;;;;9.18;2.03;;;13.40;95.70;;;;;;4967651;28;20038;-76
2022/10/03 02:31:24;;;;;;;15.18;2.03;;;13.40;95.70;;;;;;4954750;28;20046;-76
2022/10/03 02:34:08;;;;;;;11.10;1.92;;;13.40;95.70;;;;;;4968300;28;20695;-77
2022/10/03 02:36:58;;;;;;;11.40;1.80;;;13.50;95.50;;;;;;4965899;28;20023;-76
2022/10/03 02:39:49;;;;;;;10.73;2.03;;;13.50;95.50;;;;;;4972804;28;20487;-77
2022/10/03 02:42:44;;;;;;;13.57;1.80;;;13.50;95.40;;;;;;4965517;28;20038;-76
2022/10/03 02:46:19;;;;;;;10.48;2.03;;;13.50;95.40;;;;;;4969135;28;20034;-76
2022/10/03 02:49:03;;;;;;;12.38;1.80;;;13.50;95.30;;;;;;4909997;29;20039;-77
2022/10/03 02:52:01;;;;;;;12.18;1.95;;;13.50;95.40;;;;;;4917911;29;20116;-77
2022/10/03 02:55:07;;;;;;;13.75;1.90;;;13.50;95.30;;;;;;4961632;28;20047;-76
2022/10/03 02:57:54;;;;;;;13.02;1.77;;;13.50;95.30;;;;;;4963674;28;20042;-76
2022/10/03 03:00:21;;;;;;;;;;;13.50;95.20;;;;;;4970664;28;20737;-77
2022/10/03 03:03:28;;;;;;;7.80;1.77;;;13.50;95.20;;;;;;4969975;28;20118;-77
2022/10/03 03:06:29;;;;;;;9.10;1.98;;;13.40;95.30;;;;;;4961847;28;20093;-77
2022/10/03 03:09:14;;;;;;;8.25;2.10;;;13.30;95.40;;;;;;4970424;28;20042;-74
2022/10/03 03:11:53;;;;;;;9.88;2.00;;;13.30;95.50;;;;;;4969115;28;20784;-76
2022/10/03 03:14:49;;;;;;;12.07;1.85;;;13.30;95.50;;;;;;4966682;28;20061;-76
2022/10/03 03:17:28;;;;;;;9.20;1.88;;;13.40;95.50;;;;;;4966447;28;20803;-77
2022/10/03 03:20:06;;;;;;;11.05;2.47;;;13.30;95.60;;;;;;4963650;28;20069;-75
2022/10/03 03:22:32;;;;;;;8.63;1.70;;;13.40;95.60;;;;;;4968509;28;20152;-76
2022/10/03 03:25:16;;;;;;;12.77;2.50;;;13.40;95.60;;;;;;4961991;28;20122;-75
2022/10/03 03:27:46;;;;;;;10.40;1.70;;;13.40;95.60;;;;;;4964485;28;20073;-76
2022/10/03 03:30:17;;;;;;;5.93;1.70;;;13.40;95.50;;;;;;4967273;28;20038;-75
2022/10/03 03:32:43;;;;;;;11.98;1.77;;;13.40;95.50;;;;;;4966888;28;20035;-76
2022/10/03 03:35:28;;;;;;;9.23;1.40;;;13.40;95.50;;;;;;4965602;28;20030;-76
2022/10/03 03:38:15;;;;;;;9.65;1.77;;;13.40;95.50;;;;;;4968962;28;20089;-75
2022/10/03 03:41:16;;;;;;;11.48;1.70;;;13.50;95.50;;;;;;4964199;28;20881;-76
2022/10/03 03:43:48;;;;;;;7.65;1.48;;;13.50;95.50;;;;;;4971514;28;20847;-75
2022/10/03 03:46:37;;;;;;;14.90;2.45;;;13.50;95.50;;;;;;4967360;28;20046;-76
2022/10/03 03:49:28;;;;;;;12.30;1.80;;;13.50;95.40;;;;;;4961781;28;20039;-75
2022/10/03 03:51:56;;;;;;;21.45;1.85;;;13.50;95.30;;;;;;4972402;28;20173;-78
2022/10/03 03:55:14;;;;;;;9.38;1.60;;;13.50;95.30;;;;;;4969747;28;20084;-77
2022/10/03 03:57:58;;;;;;;12.15;2.13;;;13.40;95.30;;;;;;4945809;28;20039;-78
2022/10/03 04:01:02;;;;;;;16.58;2.40;;;13.40;95.40;;;;;;4947255;28;20145;-77
2022/10/03 04:03:30;;;;;;;8.10;1.75;;;13.30;95.50;;;;;;4964328;28;20710;-77
2022/10/03 04:06:06;;;;;;;12.57;1.80;;;13.30;95.60;;;;;;4968606;28;20034;-77
2022/10/03 04:08:57;;;;;;;12.02;2.20;;;13.30;95.60;;;;;;4966969;28;20042;-77
2022/10/03 04:11:54;;;;;;;12.55;2.45;;;13.30;95.60;;;;;;4961995;28;20054;-77
2022/10/03 04:14:44;;;;;;;9.67;2.23;;;13.30;95.50;;;;;;4973866;28;20396;-76
2022/10/03 04:20:18;;;;;;;11.00;1.65;;;13.30;95.50;;;;;;4970212;28;20368;-80
2022/10/03 04:23:02;;;;;;;13.15;3.20;;;13.40;95.50;;;;;;4963216;28;20871;-78
2022/10/03 04:25:46;;;;;;;6.88;1.60;;;13.40;95.50;;;;;;4975046;28;20030;-79
2022/10/03 04:28:18;;;;;;;7.70;1.40;;;13.40;95.40;;;;;;4971107;28;20042;-79
2022/10/03 04:30:57;;;;;;;14.05;2.28;;;13.30;95.30;;;;;;4973515;28;20037;-78
2022/10/03 04:33:55;;;;;;;7.20;1.75;;;13.30;95.30;;;;;;4974825;28;20035;-79
2022/10/03 04:36:20;;;;;;;9.38;1.50;;;13.30;95.20;;;;;;4970543;28;20618;-79
2022/10/03 04:39:04;;;;;;;13.75;1.90;;;13.30;95.20;;;;;;4977912;28;20026;-79
2022/10/03 04:41:49;;;;;;;10.38;2.00;;;13.30;95.30;;;;;;4970789;28;20038;-79
2022/10/03 04:44:31;;;;;;;14.13;2.08;;;13.40;95.20;;;;;;4974495;28;20510;-85
2022/10/03 04:47:03;;;;;;;10.43;1.77;;;13.40;95.10;;;;;;4971664;28;20061;-85
2022/10/03 04:49:50;;;;;;;13.18;2.00;;;13.30;95.10;;;;;;4982130;28;20048;-84
2022/10/03 04:52:36;;;;;;;7.95;1.73;;;13.20;95.10;;;;;;4969439;28;20057;-77
2022/10/03 04:55:37;;;;;;;5.65;1.42;;;13.20;95.20;;;;;;4966500;28;20523;-77
2022/10/03 04:58:40;;;;;;;13.27;3.03;;;13.10;95.30;;;;;;4976755;28;20089;-77
2022/10/03 05:01:21;;;;;;;11.10;2.45;;;13.10;95.30;;;;;;4976660;28;20426;-78
2022/10/03 05:03:56;;;;;;;5.50;1.80;;;13.00;95.50;;;;;;4970032;28;20044;-77
2022/10/03 05:06:47;;;;;;;12.65;2.58;;;12.90;95.60;;;;;;4973631;28;20664;-78
2022/10/03 05:09:32;;;;;;;14.00;2.28;;;12.90;95.70;;;;;;4971570;28;20039;-78
2022/10/03 05:12:26;;;;;;;12.63;2.30;;;12.90;95.70;;;;;;4973105;28;20177;-77
2022/10/03 05:15:13;;;;;;;10.02;2.20;;;12.90;95.80;;;;;;4964994;28;20039;-77
2022/10/03 05:17:57;;;;;;;8.43;1.63;;;12.90;96.00;;;;;;4973291;28;20031;-77
2022/10/03 05:20:41;;;;;;;7.15;2.05;;;12.90;96.10;;;;;;4969981;28;20158;-77
2022/10/03 05:23:13;;;;;;;10.80;1.92;;;12.90;96.20;;;;;;4977611;28;20094;-77
2022/10/03 05:26:03;;;;;;;7.65;2.00;;;13.00;96.20;;;;;;4966753;28;20034;-77
2022/10/03 05:29:00;;;;;;;12.77;2.25;;;13.00;96.20;;;;;;4973206;28;20038;-77
2022/10/03 05:31:43;;;;;;;15.27;2.05;;;13.10;96.10;;;;;;4912290;28;20247;-77
2022/10/03 05:34:31;;;;;;;11.10;1.88;;;13.10;96.00;;;;;;4969182;28;20562;-77
2022/10/03 05:37:16;;;;;;;9.57;1.77;;;13.20;95.90;;;;;;4965352;28;20042;-77
2022/10/03 05:39:53;;;;;;;10.02;1.98;;;13.20;95.60;;;;;;4969487;28;20840;-77
2022/10/03 05:42:34;;;;;;;14.20;2.22;;;13.20;95.70;;;;;;4973839;28;20031;-77
2022/10/03 05:45:20;;;;;;;9.38;2.30;;;13.20;95.70;;;;;;4971023;28;20038;-77
2022/10/03 05:48:33;;;;;;;7.97;2.07;;;13.30;95.60;;;;;;4971094;28;20026;-77
2022/10/03 05:51:11;;;;;;;12.23;2.20;;;13.30;95.50;;;;;;4959904;28;20046;-77
2022/10/03 05:54:15;;;;;;;11.45;1.70;;;13.30;95.40;;;;;;4970254;28;20463;-77
2022/10/03 05:57:32;;;;;;;10.55;1.95;;;13.40;95.40;;;;;;4971737;28;20034;-77
2022/10/03 06:00:08;;;;;;;12.45;1.70;;;13.40;95.30;;;;;;4947862;28;20169;-77
2022/10/03 06:02:52;;;;;;;8.90;1.60;;;13.40;95.20;;;;;;4968077;28;20034;-77
2022/10/03 06:05:40;;;;;;;8.40;1.90;;;13.40;94.90;;;;;;4970861;28;20039;-77
2022/10/03 06:08:21;;;;;;;11.40;1.98;;;13.30;95.10;;;;;;4964435;28;20034;-77
2022/10/03 06:11:16;;;;;;;12.38;1.60;;;13.30;95.00;;;;;;4970887;28;20122;-77
2022/10/03 06:13:48;;;;;;;8.13;1.63;;;13.30;95.00;;;;;;4959306;28;20527;-77
2022/10/03 06:16:31;;;;;;;6.47;1.52;;;13.30;95.10;;;;;;4970731;28;20101;-77
2022/10/03 06:19:05;;;;;;;11.32;1.77;;;13.30;95.10;;;;;;4966209;28;20039;-77
2022/10/03 06:22:14;;;;;;;8.02;1.63;;;13.30;95.10;;;;;;4962633;28;20068;-77
2022/10/03 06:25:01;;;;;;;11.40;2.78;;;13.40;95.20;;;;;;4967540;28;20105;-77
2022/10/03 06:27:49;;;;;;;11.15;1.90;;;13.40;95.10;;;;;;4961885;28;20038;-77
2022/10/03 06:30:36;;;;;;;17.42;2.25;;;13.50;94.90;;;;;;4967327;28;20041;-77
2022/10/03 06:33:39;;;;;;;8.75;1.60;;;13.50;94.90;;;;;;4970275;28;20094;-77
2022/10/03 06:36:34;;;;;;;6.97;1.35;;;13.40;94.80;;;;;;4966362;28;20069;-77
2022/10/03 06:39:33;;;;;;;7.75;1.95;;;13.50;94.90;;;;;;4970077;28;20053;-77
2022/10/03 06:42:20;;;;;;;13.02;2.25;;;13.60;94.70;;;;;;4962767;28;20041;-77
2022/10/03 06:45:25;;;;;;;10.98;1.58;;;13.60;94.70;;;;;;4963370;28;20065;-77
2022/10/03 06:48:33;;;;;;;7.88;1.50;;;13.70;94.70;;;;;;4949688;28;20062;-77
2022/10/03 06:51:42;;;;;;;12.40;2.00;;;13.80;94.40;;;;;;4961680;28;20669;-77
2022/10/03 06:54:20;;;;;;;14.80;1.83;;;13.80;94.40;;;;;;4971085;28;20375;-76
2022/10/03 06:57:09;;;;;;;10.40;1.60;;;13.80;94.00;;;;;;4978867;28;20026;-77
2022/10/03 07:00:00;;;;;;;11.40;1.75;;;13.70;94.00;;;;;;4967036;28;20038;-77
2022/10/03 07:02:50;;;;;;;11.60;2.03;;;13.70;94.20;;;;;;4965817;28;20034;-77
2022/10/03 07:05:40;;;;;;;11.10;1.67;;;13.80;94.40;;;;;;4962756;28;20470;-77
2022/10/03 07:08:17;;;;;;;7.50;1.42;;;13.80;94.30;;;;;;4971137;28;20043;-77
2022/10/03 07:11:08;;;;;;;10.65;2.05;;;13.90;94.10;;;;;;4964042;28;20039;-78
2022/10/03 07:13:42;;;;;;;7.40;1.60;;;14.00;93.90;;;;;;4956765;28;20030;-77
2022/10/03 07:16:28;;;;;;;5.20;1.58;;;14.00;93.80;;;;;;4960887;28;20019;-77
2022/10/03 07:19:31;;;;;;;13.52;2.08;;;14.10;93.50;;;;;;4917611;28;20051;-77
2022/10/03 07:22:24;;;;;;;9.05;1.90;;;14.10;93.60;;;;;;4963353;28;20092;-77
2022/10/03 07:25:21;;;;;;;9.68;1.95;;;14.20;93.70;;;;;;4962010;28;20042;-77
2022/10/03 07:27:49;;;;;;;9.52;2.53;;;14.30;93.40;;;;;;4975344;28;20035;-77
2022/10/03 07:30:23;;;;;;;10.45;1.63;;;14.40;93.30;;;;;;4965449;28;20157;-77
2022/10/03 07:33:26;;;;;;;8.05;2.05;;;14.50;93.30;;;;;;4960055;28;20031;-77
2022/10/03 07:39:10;;;;;;;8.80;1.77;;;14.60;92.50;;;;;;4963917;28;20131;-77
2022/10/03 07:41:42;;;;;;;12.25;1.90;;;14.70;92.70;;;;;;4958493;28;20038;-77
2022/10/03 07:44:41;;;;;;;11.32;1.88;;;14.70;92.40;;;;;;4970938;28;20041;-77
2022/10/03 07:47:28;;;;;;;11.15;2.30;;;14.70;92.30;;;;;;4961911;28;20034;-77
2022/10/03 07:50:05;;;;;;;8.95;1.48;;;14.70;92.30;;;;;;4962456;28;20038;-77
2022/10/03 07:52:42;;;;;;;8.90;1.65;;;14.70;92.40;;;;;;4968977;28;20038;-77
2022/10/03 07:55:08;;;;;;;13.05;2.28;;;14.80;92.20;;;;;;4963951;28;20105;-77
2022/10/03 07:57:50;;;;;;;15.07;1.80;;;14.90;92.20;;;;;;4969060;28;20049;-77
2022/10/03 08:00:33;;;;;;;10.82;1.88;;;14.90;91.80;;;;;;4962795;28;20031;-77
2022/10/03 08:03:24;;;;;;;14.10;2.00;;;14.90;91.50;;;;;;4962958;28;20105;-73
2022/10/03 08:06:09;;;;;;;10.30;2.35;;;14.90;91.70;;;;;;4959259;28;20169;-78
2022/10/03 08:08:57;;;;;;;10.70;1.85;;;14.90;91.30;;;;;;4958683;28;20035;-73
2022/10/03 08:11:35;;;;;;;16.05;2.00;;;14.90;91.60;;;;;;4960943;28;20047;-72
2022/10/03 08:14:21;;;;;;;10.75;1.90;;;14.90;91.50;;;;;;4967070;28;20043;-73
2022/10/03 08:16:59;;;;;;;14.63;2.50;;;14.90;91.30;;;;;;4962575;28;20038;-73
2022/10/03 08:19:43;;;;;;;10.45;2.55;;;14.90;91.20;;;;;;4959920;28;20034;-73
2022/10/03 08:22:48;;;;;;;11.30;2.80;;;15.00;91.40;;;;;;4972051;28;20451;-71
2022/10/03 08:25:38;;;;;;;14.10;2.33;;;15.00;91.50;;;;;;4957348;28;20043;-74
2022/10/03 08:28:33;;;;;;;11.90;2.00;;;15.10;91.40;;;;;;4970313;28;20081;-72
2022/10/03 08:31:02;;;;;;;14.43;2.95;;;15.20;91.10;;;;;;4958403;28;20046;-72
2022/10/03 08:33:56;;;;;;;11.95;2.75;;;15.20;90.90;;;;;;4961081;28;20034;-72
2022/10/03 08:36:59;;;;;;;11.95;2.10;;;15.20;90.80;;;;;;4964962;28;20035;-72
2022/10/03 08:39:50;;;;;;;12.00;2.40;;;15.30;90.90;;;;;;4969719;28;20034;-72
2022/10/03 08:42:34;;;;;;;9.82;2.75;;;15.40;91.00;;;;;;4966044;28;20796;-71
2022/10/03 08:45:37;;;;;;;13.05;2.05;;;15.60;90.60;;;;;;4961035;28;20074;-72
2022/10/03 08:48:21;;;;;;;8.88;1.65;;;15.70;90.60;;;;;;4962468;28;20583;-72
2022/10/03 08:51:18;;;;;;;11.95;2.35;;;15.90;89.90;;;;;;4965549;28;20046;-72
2022/10/03 08:54:19;;;;;;;8.50;2.03;;;16.10;88.80;;;;;;4959401;28;20487;-71
2022/10/03 08:57:06;;;;;;;7.90;1.80;;;16.20;88.40;;;;;;4899008;28;20051;-71
2022/10/03 09:00:02;;;;;;;8.52;2.10;;;16.30;88.30;;;;;;4968963;28;20049;-71
2022/10/03 09:02:46;;;;;;;13.80;2.27;;;16.30;87.20;;;;;;4963364;28;20058;-71
2022/10/03 09:05:23;;;;;;;10.43;3.15;;;16.20;86.60;;;;;;4987041;28;20045;-71
2022/10/03 09:08:04;;;;;;;11.85;3.35;;;16.10;86.80;;;;;;4961649;28;20035;-71
2022/10/03 09:11:09;;;;;;;13.40;2.50;;;16.00;87.60;;;;;;4975261;28;20494;-72
2022/10/03 09:13:35;;;;;;;14.30;2.70;;;16.20;88.00;;;;;;4968505;28;20035;-72
2022/10/03 09:16:38;;;;;;;16.90;2.65;;;16.20;86.40;;;;;;4955809;28;20779;-73
2022/10/03 09:19:40;;;;;;;13.00;2.28;;;16.30;86.30;;;;;;4967544;28;20517;-75
2022/10/03 09:22:30;;;;;;;11.55;2.20;;;16.30;85.70;;;;;;4921086;29;20034;-71
2022/10/03 09:24:56;;;;;;;12.85;2.65;;;16.30;85.80;;;;;;4965472;28;20049;-72
2022/10/03 09:27:36;;;;;;;12.20;2.90;;;16.40;86.70;;;;;;4971754;28;20034;-72
2022/10/03 09:30:18;;;;;;;10.00;2.60;;;16.40;86.30;;;;;;4968159;28;20043;-71
2022/10/03 09:32:50;;;;;;;19.88;5.28;;;16.50;86.50;;;;;;4968384;28;20080;-73
2022/10/03 09:35:40;;;;;;;17.33;4.53;;;16.70;86.10;;;;;;4956505;28;20038;-69
2022/10/03 09:38:46;;;;;;;9.77;2.55;;;16.90;83.80;;;;;;4966210;28;20022;-70
2022/10/03 09:42:05;;;;;;;13.98;4.10;;;17.00;82.30;;;;;;4971899;28;20035;-70
2022/10/03 09:44:46;;;;;;;19.10;3.85;;;17.00;83.10;;;;;;4946911;28;20043;-69
2022/10/03 09:47:33;;;;;;;10.93;3.17;;;17.00;83.10;;;;;;4960762;28;20034;-70
2022/10/03 09:50:20;;;;;;;13.18;2.25;;;17.00;83.00;;;;;;4967587;28;20145;-70
2022/10/03 09:53:02;;;;;;;15.68;2.05;;;17.10;83.60;;;;;;4965649;28;20034;-73
2022/10/03 09:56:00;;;;;;;12.65;3.10;;;17.20;83.50;;;;;;4966642;28;20041;-72
2022/10/03 09:59:12;;;;;;;15.57;2.50;;;17.30;83.10;;;;;;4962853;28;20220;-72
2022/10/03 10:01:51;;;;;;;14.77;2.70;;;17.40;84.10;;;;;;4965197;28;20049;-72
2022/10/03 10:04:22;;;;;;;8.25;2.22;;;17.50;83.30;;;;;;4966969;28;20090;-72
2022/10/03 10:07:06;;;;;;;13.23;1.80;;;17.60;81.80;;;;;;4966558;28;20031;-72
2022/10/03 10:09:51;;;;;;;12.88;2.08;;;17.90;81.90;;;;;;4969309;28;20127;-72
2022/10/03 10:12:49;;;;;;;11.20;1.63;;;18.20;81.80;;;;;;4956528;28;20974;-72
2022/10/03 10:15:27;;;;;;;10.40;1.88;;;18.70;79.50;;;;;;4960825;28;20073;-72
2022/10/03 10:18:34;;;;;;;10.27;2.50;;;19.60;75.10;;;;;;4956849;28;20823;-72
2022/10/03 10:21:21;;;;;;;12.50;2.85;;;20.40;71.70;;;;;;4954592;28;20117;-72
2022/10/03 10:23:56;;;;;;;6.10;1.65;;;20.40;71.30;;;;;;4950783;28;20057;-72
2022/10/03 10:26:43;;;;;;;6.93;2.10;;;20.20;71.10;;;;;;4955818;28;21072;-74
2022/10/03 10:29:27;;;;;;;8.52;1.80;;;19.80;72.10;;;;;;4955484;28;20783;-72
2022/10/03 10:32:16;;;;;;;8.80;1.85;;;19.40;74.30;;;;;;4964513;28;20137;-72
2022/10/03 10:35:06;;;;;;;12.13;1.80;;;19.00;75.60;;;;;;4957010;28;20487;-72
2022/10/03 10:37:53;;;;;;;9.52;1.75;;;18.70;76.00;;;;;;4962812;28;20049;-72
2022/10/03 10:40:39;;;;;;;12.77;1.98;;;18.50;77.30;;;;;;4963377;28;20031;-72
2022/10/03 10:43:22;;;;;;;8.30;2.20;;;18.20;78.80;;;;;;4956863;28;20034;-72
2022/10/03 10:46:02;;;;;;;8.20;1.55;;;18.00;77.60;;;;;;4959645;28;20134;-73
2022/10/03 10:48:34;;;;;;;6.22;1.77;;;17.80;79.60;;;;;;4959873;28;20392;-72
2022/10/03 10:51:21;;;;;;;14.70;2.08;;;17.60;82.00;;;;;;4955962;28;20118;-72
2022/10/03 10:54:22;;;;;;;5.82;1.83;;;17.30;85.20;;;;;;4963626;28;20049;-72
2022/10/03 10:57:24;;;;;;;6.70;1.67;;;17.10;87.20;;;;;;4936348;28;20118;-72
2022/10/03 11:00:32;;;;;;;6.65;1.88;;;17.00;88.90;;;;;;4966129;28;20383;-72
2022/10/03 11:03:09;;;;;;;;;;;16.90;90.00;;;;;;4968757;28;20041;-72
2022/10/03 11:06:16;;;;;;;9.32;1.98;;;17.00;90.50;;;;;;4965486;28;19918;-72
2022/10/03 11:09:36;;;;;;;10.55;2.00;;;17.20;91.10;;;;;;4969483;28;20351;-72
2022/10/03 11:12:05;;;;;;;7.00;1.88;;;17.60;90.60;;;;;;4915467;29;20331;-72
2022/10/03 11:15:25;;;;;;;7.50;1.52;;;17.80;89.70;;;;;;4958997;28;20039;-71
2022/10/03 11:17:59;;;;;;;7.82;1.95;;;18.00;88.00;;;;;;4967001;28;20030;-71
2022/10/03 11:20:56;;;;;;;6.32;1.40;;;17.90;87.60;;;;;;4960944;28;20048;-72
2022/10/03 11:23:40;;;;;;;5.45;1.52;;;17.90;88.30;;;;;;4974347;28;20049;-73
2022/10/03 11:26:43;;;;;;;7.75;1.70;;;17.80;87.90;;;;;;4975018;28;20151;-72
2022/10/03 11:29:46;;;;;;;9.63;1.90;;;17.80;88.00;;;;;;4970555;28;20066;-72
2022/10/03 11:32:36;;;;;;;6.45;1.77;;;17.80;89.00;;;;;;4967857;28;20050;-73
2022/10/03 11:35:51;;;;;;;15.80;1.90;;;17.80;86.60;;;;;;4963183;28;20041;-73
2022/10/03 11:38:54;;;;;;;11.23;1.38;;;17.90;86.50;;;;;;4969621;28;20038;-73
2022/10/03 11:41:35;;;;;;;5.85;1.20;;;17.90;85.10;;;;;;4973623;28;20041;-73
2022/10/03 11:44:14;;;;;;;10.02;1.58;;;18.00;84.50;;;;;;4970407;28;20030;-72
2022/10/03 11:46:55;;;;;;;12.15;2.17;;;18.00;82.40;;;;;;4974799;28;20034;-72
2022/10/03 11:49:41;;;;;;;8.77;1.95;;;17.90;83.30;;;;;;4959837;28;20032;-72
2022/10/03 11:52:17;;;;;;;5.00;1.90;;;17.80;83.70;;;;;;4967325;28;20098;-72
2022/10/03 11:54:46;;;;;;;11.18;2.00;;;17.70;84.50;;;;;;4965338;28;20798;-73
2022/10/03 11:57:29;;;;;;;8.70;1.75;;;17.70;84.60;;;;;;4958308;28;20046;-72
2022/10/03 12:00:05;;;;;;;10.23;1.92;;;17.70;84.00;;;;;;4971550;28;20141;-72
2022/10/03 12:03:09;;;;;;;8.75;2.10;;;17.70;84.30;;;;;;4959427;28;20804;-72
2022/10/03 12:09:01;;;;;;;;;;;17.70;84.30;;;;;;4968621;28;20034;-73
2022/10/03 12:11:38;;;;;;;6.50;1.20;;;17.70;82.80;;;;;;4973509;28;20020;-71
2022/10/03 12:14:43;;;;;;;6.63;1.30;;;17.70;83.30;;;;;;4974176;28;20045;-71
2022/10/03 12:17:15;;;;;;;5.80;1.33;;;17.70;83.80;;;;;;4970315;28;20060;-71
2022/10/03 12:20:09;;;;;;;5.30;1.48;;;17.60;83.80;;;;;;4960698;28;20033;-72
2022/10/03 12:23:07;;;;;;;7.53;1.45;;;17.60;84.60;;;;;;4977055;28;20038;-72
2022/10/03 12:25:38;;;;;;;3.47;1.25;;;17.60;83.50;;;;;;4969229;28;20503;-72
2022/10/03 12:28:16;;;;;;;4.50;1.30;;;17.60;82.30;;;;;;4969737;28;20687;-70
2022/10/03 12:30:54;;;;;;;6.65;1.13;;;17.50;83.10;;;;;;4965347;28;20031;-71
2022/10/03 12:33:50;;;;;;;7.65;1.30;;;17.50;82.90;;;;;;4972128;28;20734;-72
2022/10/03 12:36:19;;;;;;;5.45;1.88;;;17.50;82.70;;;;;;4968718;28;20089;-72
2022/10/03 12:39:13;;;;;;;5.75;1.50;;;17.70;83.90;;;;;;4978707;28;20750;-72
2022/10/03 12:42:16;;;;;;;6.65;1.75;;;17.80;84.00;;;;;;4967358;28;20099;-74
2022/10/03 12:45:07;;;;;;;4.13;1.20;;;18.00;83.60;;;;;;4966838;28;20042;-71
2022/10/03 12:47:45;;;;;;;4.30;1.08;;;18.00;82.30;;;;;;4972580;28;20509;-71
2022/10/03 12:50:27;;;;;;;5.35;1.13;;;18.00;81.60;;;;;;4970154;28;20685;-73
2022/10/03 12:52:59;;;;;;;9.80;1.70;;;17.80;81.80;;;;;;4972189;28;20030;-72
2022/10/03 12:55:37;;;;;;;6.43;1.27;;;17.70;81.60;;;;;;4967894;28;20525;-71
2022/10/03 12:58:24;;;;;;;5.18;1.50;;;17.60;82.10;;;;;;4973478;28;20041;-72
2022/10/03 13:01:44;;;;;;;4.25;1.05;;;17.50;83.00;;;;;;4971763;28;20754;-73
2022/10/03 13:04:28;;;;;;;3.33;1.15;;;17.50;82.80;;;;;;4907702;29;20182;-73
2022/10/03 13:07:32;;;;;;;4.15;1.30;;;17.50;84.00;;;;;;4966585;28;20046;-73
2022/10/03 13:10:44;;;;;;;5.90;1.50;;;17.60;84.00;;;;;;4966982;28;20047;-73
2022/10/03 13:13:43;;;;;;;9.35;1.85;;;17.70;83.30;;;;;;4972623;28;20034;-72
2022/10/03 13:16:30;;;;;;;6.25;1.33;;;17.70;81.50;;;;;;4966809;28;20575;-72
2022/10/03 13:19:26;;;;;;;7.85;1.67;;;17.70;82.90;;;;;;4968984;28;20449;-77
2022/10/03 13:22:07;;;;;;;6.63;1.42;;;17.60;81.70;;;;;;4970274;28;20030;-72
2022/10/03 13:24:52;;;;;;;8.15;1.50;;;17.60;81.50;;;;;;4970659;28;20478;-75
2022/10/03 13:27:39;;;;;;;8.15;2.58;;;17.50;81.20;;;;;;4980942;28;20031;-74
2022/10/03 13:30:21;;;;;;;9.57;2.33;;;17.50;80.80;;;;;;4972195;28;20035;-75
2022/10/03 13:33:02;;;;;;;11.88;2.03;;;17.60;81.70;;;;;;4966435;28;20153;-74
2022/10/03 13:36:11;;;;;;;5.22;1.60;;;17.70;80.40;;;;;;4982068;28;20062;-74
2022/10/03 13:38:46;;;;;;;8.27;1.40;;;17.80;80.40;;;;;;4950749;28;20058;-73
2022/10/03 13:41:25;;;;;;;10.35;1.52;;;17.90;79.00;;;;;;4972942;28;20089;-73
2022/10/03 13:43:58;;;;;;;6.72;1.30;;;17.90;77.80;;;;;;4970307;28;20076;-73
2022/10/03 13:46:52;;;;;;;8.38;1.77;;;17.90;77.70;;;;;;4972376;28;20039;-73
2022/10/03 13:49:34;;;;;;;5.53;1.58;;;17.90;77.70;;;;;;4967776;28;20193;-73
2022/10/03 13:52:16;;;;;;;9.20;1.52;;;17.90;77.80;;;;;;4969706;28;20059;-73
2022/10/03 13:55:07;;;;;;;5.30;1.10;;;18.00;79.20;;;;;;4965499;28;20053;-73
2022/10/03 13:57:57;;;;;;;6.75;1.13;;;18.10;78.20;;;;;;4972994;28;20031;-73
2022/10/03 14:00:27;;;;;;;10.73;1.50;;;18.10;76.40;;;;;;4971493;28;20066;-73
2022/10/03 14:03:10;;;;;;;9.68;1.95;;;18.20;77.20;;;;;;4971933;28;20043;-74
2022/10/03 14:05:53;;;;;;;8.10;1.70;;;18.30;76.80;;;;;;4969169;28;20039;-74
2022/10/03 14:08:38;;;;;;;4.45;1.40;;;18.30;75.90;;;;;;4967991;28;20149;-73
2022/10/03 14:11:18;;;;;;;6.85;1.27;;;18.40;75.90;;;;;;4970558;28;20058;-74
2022/10/03 14:14:05;;;;;;;5.15;1.10;;;18.40;76.20;;;;;;4966839;28;20485;-72
2022/10/03 14:16:35;;;;;;;5.18;1.30;;;18.40;75.50;;;;;;4969353;28;20035;-71
2022/10/03 14:19:32;;;;;;;5.18;1.30;;;18.30;76.10;;;;;;4971187;28;20031;-72
2022/10/03 14:22:06;;;;;;;10.57;2.03;;;18.30;75.90;;;;;;4964690;28;20836;-72
2022/10/03 14:24:55;;;;;;;8.90;2.53;;;18.30;76.20;;;;;;4967518;28;20038;-72
2022/10/03 14:27:45;;;;;;;8.00;3.28;;;18.20;75.60;;;;;;4971808;28;20109;-71
2022/10/03 14:30:20;;;;;;;7.25;2.45;;;18.20;75.80;;;;;;4974163;28;20026;-71
2022/10/03 14:33:11;;;;;;;7.43;2.03;;;18.20;77.00;;;;;;4969047;28;20030;-73
2022/10/03 14:35:40;;;;;;;7.32;2.22;;;18.20;77.00;;;;;;4965920;28;20427;-71